createdAt,value
2023-02-14T00:01:11.420Z,100.00
2023-02-14T00:03:38.975Z,100.00
2023-02-14T00:06:08.292Z,100.00
2023-02-14T00:08:36.525Z,100.00
2023-02-14T00:11:04.480Z,100.00
2023-02-14T00:13:31.902Z,100.00
2023-02-14T00:15:58.437Z,100.00
2023-02-14T00:18:47.434Z,100.00
2023-02-14T00:21:14.903Z,100.00
2023-02-14T00:23:42.346Z,99.76
2023-02-14T00:26:14.525Z,100.00
2023-02-14T00:28:41.962Z,99.71
2023-02-14T00:31:09.616Z,100.00
2023-02-14T00:33:38.526Z,100.00
2023-02-14T00:36:07.607Z,100.00
2023-02-14T00:38:35.649Z,100.00
2023-02-14T00:41:04.865Z,100.00
2023-02-14T00:43:32.559Z,100.00
2023-02-14T00:46:00.058Z,100.00
2023-02-14T00:48:27.716Z,100.00
2023-02-14T00:50:56.733Z,100.00
2023-02-14T00:53:24.346Z,100.00
2023-02-14T00:55:51.762Z,100.00
2023-02-14T00:58:19.233Z,100.00
2023-02-14T01:00:46.731Z,99.81
2023-02-14T01:03:14.226Z,99.68
2023-02-14T01:05:41.942Z,100.00
2023-02-14T01:08:10.808Z,100.00
2023-02-14T01:10:38.807Z,100.00
2023-02-14T01:13:06.770Z,100.00
2023-02-14T01:15:34.907Z,100.00
2023-02-14T01:18:02.330Z,100.00
2023-02-14T01:20:29.774Z,100.00
2023-02-14T01:22:57.314Z,100.00
2023-02-14T01:25:26.334Z,100.00
2023-02-14T01:27:53.976Z,100.00
2023-02-14T01:30:22.276Z,100.00
2023-02-14T01:32:49.800Z,100.00
2023-02-14T01:35:17.466Z,100.00
2023-02-14T01:37:44.902Z,100.00
2023-02-14T01:40:14.197Z,100.00
2023-02-14T01:42:43.017Z,100.00
2023-02-14T01:45:19.464Z,100.00
2023-02-14T01:47:50.929Z,100.00
2023-02-14T01:50:22.638Z,100.00
2023-02-14T01:52:53.766Z,100.00
2023-02-14T01:55:24.582Z,100.00
2023-02-14T01:57:57.148Z,100.00
2023-02-14T02:00:42.674Z,100.00
2023-02-14T02:03:11.777Z,100.00
2023-02-14T02:05:45.322Z,100.00
2023-02-14T02:08:13.220Z,100.00
2023-02-14T02:10:40.685Z,100.00
2023-02-14T02:13:16.684Z,100.00
2023-02-14T02:15:54.746Z,100.00
2023-02-14T02:18:32.740Z,100.00
2023-02-14T02:21:31.922Z,100.00
2023-02-14T02:24:29.544Z,100.00
2023-02-14T02:27:19.919Z,100.00
2023-02-14T02:30:10.290Z,100.00
2023-02-14T02:33:11.419Z,100.00
2023-02-14T02:36:09.809Z,100.00
2023-02-14T02:38:55.402Z,100.00
2023-02-14T02:41:33.592Z,100.00
2023-02-14T02:44:08.771Z,100.00
2023-02-14T02:46:49.995Z,100.00
2023-02-14T02:49:59.314Z,100.00
2023-02-14T02:52:55.712Z,100.00
2023-02-14T02:55:29.173Z,100.00
2023-02-14T02:57:56.841Z,100.00
2023-02-14T03:00:25.826Z,100.00
2023-02-14T03:03:15.832Z,100.00
2023-02-14T03:05:44.253Z,100.00
2023-02-14T03:08:13.045Z,100.00
2023-02-14T03:10:40.820Z,100.00
2023-02-14T03:13:39.734Z,99.99
2023-02-14T03:16:26.464Z,99.80
2023-02-14T03:19:11.238Z,99.92
2023-02-14T03:21:51.063Z,99.87
2023-02-14T03:24:28.478Z,100.00
2023-02-14T03:27:04.695Z,99.92
2023-02-14T03:29:44.710Z,100.00
2023-02-14T03:32:17.652Z,99.65
2023-02-14T03:34:53.841Z,99.51
2023-02-14T03:37:27.348Z,100.00
2023-02-14T03:40:06.342Z,100.00
2023-02-14T03:42:37.640Z,100.00
2023-02-14T03:45:10.155Z,100.00
2023-02-14T03:47:41.858Z,100.00
2023-02-14T03:50:15.509Z,100.00
2023-02-14T03:52:45.551Z,100.00
2023-02-14T03:55:18.137Z,100.00
2023-02-14T03:57:53.712Z,100.00
2023-02-14T04:00:21.635Z,100.00
2023-02-14T04:02:54.014Z,100.00
2023-02-14T04:05:25.839Z,100.00
2023-02-14T04:07:55.311Z,100.00
2023-02-14T04:10:25.246Z,100.00
2023-02-14T04:12:52.755Z,100.00
2023-02-14T04:15:20.319Z,100.00
2023-02-14T04:18:05.266Z,100.00
2023-02-14T04:20:32.808Z,100.00
2023-02-14T04:23:02.312Z,100.00
2023-02-14T04:25:32.320Z,100.00
2023-02-14T04:27:59.772Z,100.00
2023-02-14T04:30:27.324Z,100.00
2023-02-14T04:32:54.850Z,100.00
2023-02-14T04:35:22.281Z,100.00
2023-02-14T04:37:49.785Z,100.00
2023-02-14T04:40:17.735Z,100.00
2023-02-14T04:42:47.061Z,100.00
2023-02-14T04:45:15.070Z,100.00
2023-02-14T04:47:42.559Z,100.00
2023-02-14T04:50:10.773Z,100.00
2023-02-14T04:52:38.338Z,100.00
2023-02-14T04:55:06.604Z,100.00
2023-02-14T04:57:34.166Z,100.00
2023-02-14T05:00:02.993Z,100.00
2023-02-14T05:02:30.515Z,100.00
2023-02-14T05:04:57.996Z,100.00
2023-02-14T05:07:25.461Z,100.00
2023-02-14T05:09:52.976Z,100.00
2023-02-14T05:12:20.601Z,100.00
2023-02-14T05:14:48.145Z,100.00
2023-02-14T05:17:17.033Z,100.00
2023-02-14T05:19:44.520Z,100.00
2023-02-14T05:22:12.075Z,100.00
2023-02-14T05:24:40.033Z,100.00
2023-02-14T05:27:07.719Z,100.00
2023-02-14T05:29:35.215Z,100.00
2023-02-14T05:32:02.690Z,100.00
2023-02-14T05:34:31.569Z,100.00
2023-02-14T05:36:59.073Z,100.00
2023-02-14T05:39:26.542Z,100.00
2023-02-14T05:41:53.988Z,100.00
2023-02-14T05:44:21.657Z,100.00
2023-02-14T05:46:49.171Z,100.00
2023-02-14T05:49:16.599Z,100.00
2023-02-14T05:51:45.415Z,100.00
2023-02-14T05:54:12.986Z,100.00
2023-02-14T05:56:40.536Z,100.00
2023-02-14T05:59:08.028Z,100.00
2023-02-14T06:01:35.462Z,100.00
2023-02-14T06:04:03.156Z,100.00
2023-02-14T06:06:30.721Z,100.00
2023-02-14T06:08:59.545Z,100.00
2023-02-14T06:11:27.002Z,100.00
2023-02-14T06:13:54.455Z,100.00
2023-02-14T06:16:21.972Z,100.00
2023-02-14T06:18:49.608Z,100.00
2023-02-14T06:21:17.082Z,100.00
2023-02-14T06:23:44.521Z,100.00
2023-02-14T06:26:13.387Z,100.00
2023-02-14T06:28:40.833Z,100.00
2023-02-14T06:31:08.379Z,100.00
2023-02-14T06:33:35.988Z,100.00
2023-02-14T06:36:03.404Z,100.00
2023-02-14T06:38:30.826Z,100.00
2023-02-14T06:41:04.316Z,100.00
2023-02-14T06:43:33.466Z,100.00
2023-02-14T06:46:00.974Z,100.00
2023-02-14T06:48:28.536Z,100.00
2023-02-14T06:50:55.964Z,100.00
2023-02-14T06:53:23.369Z,100.00
2023-02-14T06:55:50.851Z,100.00
2023-02-14T06:58:18.306Z,100.00
2023-02-14T07:00:47.153Z,100.00
2023-02-14T07:03:14.976Z,100.00
2023-02-14T07:05:42.458Z,100.00
2023-02-14T07:08:10.248Z,100.00
2023-02-14T07:10:37.991Z,100.00
2023-02-14T07:13:05.868Z,100.00
2023-02-14T07:15:33.655Z,100.00
2023-02-14T07:18:02.436Z,100.00
2023-02-14T07:20:29.972Z,100.00
2023-02-14T07:22:57.412Z,100.00
2023-02-14T07:25:24.834Z,100.00
2023-02-14T07:27:52.330Z,100.00
2023-02-14T07:30:19.955Z,100.00
2023-02-14T07:32:47.436Z,100.00
2023-02-14T07:35:16.202Z,100.00
2023-02-14T07:37:43.610Z,100.00
2023-02-14T07:40:14.846Z,100.00
2023-02-14T07:42:42.992Z,100.00
2023-02-14T07:45:21.121Z,99.85
2023-02-14T07:47:50.916Z,99.30
2023-02-14T07:50:20.678Z,98.99
2023-02-14T07:52:48.365Z,98.52
2023-02-14T07:55:16.270Z,98.27
2023-02-14T07:57:43.751Z,97.84
2023-02-14T08:00:11.937Z,97.86
2023-02-14T08:02:39.357Z,97.44
2023-02-14T08:05:07.570Z,97.54
2023-02-14T08:07:36.595Z,97.05
2023-02-14T08:10:04.264Z,97.38
2023-02-14T08:12:49.572Z,96.54
2023-02-14T08:15:34.738Z,96.59
2023-02-14T08:18:02.218Z,95.63
2023-02-14T08:20:29.812Z,95.15
2023-02-14T08:22:58.756Z,95.47
2023-02-14T08:25:26.243Z,95.42
2023-02-14T08:27:55.121Z,95.74
2023-02-14T08:30:23.067Z,95.04
2023-02-14T08:32:50.612Z,95.26
2023-02-14T08:35:18.307Z,94.59
2023-02-14T08:37:45.772Z,94.66
2023-02-14T08:40:14.884Z,93.38
2023-02-14T08:42:42.702Z,93.71
2023-02-14T08:45:10.856Z,93.01
2023-02-14T08:47:40.163Z,92.22
2023-02-14T08:50:09.959Z,91.27
2023-02-14T08:52:37.489Z,91.25
2023-02-14T08:55:05.173Z,90.53
2023-02-14T08:57:34.060Z,90.35
2023-02-14T09:00:01.536Z,89.65
2023-02-14T09:02:29.109Z,88.98
2023-02-14T09:04:56.545Z,87.99
2023-02-14T09:07:23.981Z,87.53
2023-02-14T09:09:51.448Z,87.05
2023-02-14T09:12:18.893Z,87.01
2023-02-14T09:14:47.727Z,86.68
2023-02-14T09:17:16.160Z,87.13
2023-02-14T09:19:43.944Z,86.51
2023-02-14T09:22:12.771Z,85.18
2023-02-14T09:24:41.390Z,84.72
2023-02-14T09:27:10.536Z,84.39
2023-02-14T09:29:38.249Z,84.07
2023-02-14T09:32:07.533Z,83.72
2023-02-14T09:34:36.266Z,83.87
2023-02-14T09:37:21.523Z,82.71
2023-02-14T09:39:49.176Z,81.70
2023-02-14T09:42:37.808Z,81.48
2023-02-14T09:45:12.040Z,81.15
2023-02-14T09:47:47.461Z,80.84
2023-02-14T09:50:20.890Z,79.90
2023-02-14T09:52:53.246Z,79.66
2023-02-14T09:55:27.754Z,78.53
2023-02-14T09:58:10.154Z,77.15
2023-02-14T10:00:43.498Z,77.48
2023-02-14T10:03:49.972Z,75.90
2023-02-14T10:06:31.394Z,74.71
2023-02-14T10:09:08.254Z,74.31
2023-02-14T10:11:46.635Z,73.81
2023-02-14T10:14:18.188Z,73.39
2023-02-14T10:16:49.841Z,73.38
2023-02-14T10:19:25.200Z,71.89
2023-02-14T10:22:02.802Z,70.59
2023-02-14T10:24:36.103Z,71.11
2023-02-14T10:27:13.330Z,70.00
2023-02-14T10:29:42.806Z,70.05
2023-02-14T10:32:15.463Z,69.46
2023-02-14T10:34:50.067Z,67.84
2023-02-14T10:37:32.800Z,66.98
2023-02-14T10:40:21.832Z,66.22
2023-02-14T10:42:59.964Z,66.12
2023-02-14T10:45:35.344Z,64.97
2023-02-14T10:48:09.997Z,66.03
2023-02-14T10:50:47.726Z,64.75
2023-02-14T10:53:20.812Z,65.25
2023-02-14T10:55:53.888Z,64.55
2023-02-14T10:58:23.593Z,63.18
2023-02-14T11:00:59.209Z,62.66
2023-02-14T11:03:28.386Z,63.13
2023-02-14T11:05:57.374Z,62.85
2023-02-14T11:08:28.230Z,63.04
2023-02-14T11:11:01.019Z,62.17
2023-02-14T11:13:35.218Z,61.56
2023-02-14T11:16:05.354Z,60.02
2023-02-14T11:18:35.680Z,57.90
2023-02-14T11:21:08.175Z,55.78
2023-02-14T11:23:38.690Z,56.92
2023-02-14T11:26:11.625Z,57.00
2023-02-14T11:28:49.685Z,56.54
2023-02-14T11:31:26.434Z,56.96
2023-02-14T11:33:54.294Z,57.10
2023-02-14T11:36:24.713Z,56.75
2023-02-14T11:38:58.947Z,54.60
2023-02-14T11:41:26.372Z,54.79
2023-02-14T11:44:12.820Z,54.04
2023-02-14T11:46:52.748Z,53.86
2023-02-14T11:49:30.083Z,54.79
2023-02-14T11:52:02.864Z,51.39
2023-02-14T11:54:36.549Z,52.99
2023-02-14T11:57:09.565Z,51.84
2023-02-14T11:59:44.136Z,52.02
2023-02-14T12:02:26.595Z,50.18
2023-02-14T12:04:58.337Z,51.15
2023-02-14T12:07:31.789Z,49.45
2023-02-14T12:10:18.346Z,50.16
2023-02-14T12:12:54.304Z,51.54
2023-02-14T12:15:36.546Z,51.23
2023-02-14T12:18:30.744Z,50.74
2023-02-14T12:21:05.089Z,51.62
2023-02-14T12:23:41.920Z,50.89
2023-02-14T12:26:18.620Z,51.04
2023-02-14T12:28:52.105Z,49.99
2023-02-14T12:31:20.472Z,50.04
2023-02-14T12:33:50.219Z,50.94
2023-02-14T12:36:31.596Z,51.35
2023-02-14T12:39:09.839Z,49.30
2023-02-14T12:41:45.988Z,49.81
2023-02-14T12:44:22.187Z,49.29
2023-02-14T12:47:04.383Z,49.55
2023-02-14T12:49:49.317Z,48.76
2023-02-14T12:52:39.117Z,50.79
2023-02-14T12:55:28.367Z,49.58
2023-02-14T12:58:03.418Z,48.00
2023-02-14T13:00:38.536Z,48.19
2023-02-14T13:03:31.802Z,46.97
2023-02-14T13:06:04.929Z,46.27
2023-02-14T13:08:49.297Z,46.37
2023-02-14T13:11:34.324Z,46.59
2023-02-14T13:14:15.767Z,46.47
2023-02-14T13:16:50.420Z,46.55
2023-02-14T13:19:33.844Z,46.62
2023-02-14T13:22:03.069Z,46.67
2023-02-14T13:24:36.372Z,45.73
2023-02-14T13:27:07.996Z,45.86
2023-02-14T13:29:44.181Z,45.92
2023-02-14T13:32:15.030Z,44.98
2023-02-14T13:34:45.043Z,45.27
2023-02-14T13:37:15.199Z,44.96
2023-02-14T13:39:46.621Z,45.27
2023-02-14T13:42:51.889Z,45.50
2023-02-14T13:46:04.980Z,45.21
2023-02-14T13:48:33.033Z,44.42
2023-02-14T13:51:02.823Z,46.04
2023-02-14T13:53:33.934Z,44.86
2023-02-14T13:56:02.061Z,44.08
2023-02-14T13:58:31.240Z,43.13
2023-02-14T14:00:59.027Z,42.53
2023-02-14T14:03:55.153Z,44.65
2023-02-14T14:06:22.642Z,42.35
2023-02-14T14:08:56.984Z,42.48
2023-02-14T14:11:59.465Z,42.96
2023-02-14T14:14:36.234Z,42.44
2023-02-14T14:17:19.425Z,43.20
2023-02-14T14:19:47.534Z,42.69
2023-02-14T14:22:16.609Z,42.38
2023-02-14T14:24:57.033Z,42.71
2023-02-14T14:27:27.087Z,42.39
2023-02-14T14:29:58.369Z,42.98
2023-02-14T14:32:30.457Z,42.51
2023-02-14T14:34:59.703Z,42.71
2023-02-14T14:37:29.575Z,41.16
2023-02-14T14:39:58.811Z,41.75
2023-02-14T14:42:31.810Z,40.27
2023-02-14T14:45:03.284Z,39.92
2023-02-14T14:47:38.041Z,40.10
2023-02-14T14:50:10.528Z,38.23
2023-02-14T14:52:40.640Z,36.44
2023-02-14T14:55:10.154Z,36.39
2023-02-14T14:57:39.552Z,36.11
2023-02-14T15:00:20.364Z,34.84
2023-02-14T15:03:06.440Z,35.32
2023-02-14T15:05:36.730Z,34.30
2023-02-14T15:08:20.822Z,34.34
2023-02-14T15:10:52.374Z,35.08
2023-02-14T15:13:48.710Z,34.99
2023-02-14T15:16:22.937Z,35.59
2023-02-14T15:18:52.078Z,36.36
2023-02-14T15:21:19.792Z,35.35
2023-02-14T15:23:47.692Z,35.65
2023-02-14T15:26:19.814Z,36.65
2023-02-14T15:28:55.666Z,37.36
2023-02-14T15:31:29.017Z,37.97
2023-02-14T15:33:57.576Z,38.50
2023-02-14T15:36:25.410Z,38.39
2023-02-14T15:38:54.344Z,37.68
2023-02-14T15:41:24.219Z,38.18
2023-02-14T15:43:53.996Z,38.57
2023-02-14T15:46:32.150Z,37.87
2023-02-14T15:49:01.702Z,38.97
2023-02-14T15:51:32.585Z,38.79
2023-02-14T15:54:02.768Z,38.63
2023-02-14T15:56:32.432Z,39.12
2023-02-14T15:59:02.230Z,39.18
2023-02-14T16:01:33.587Z,38.79
2023-02-14T16:04:03.582Z,39.28
2023-02-14T16:06:37.187Z,40.68
2023-02-14T16:09:06.953Z,42.29
2023-02-14T16:11:36.995Z,42.11
2023-02-14T16:14:40.885Z,43.67
2023-02-14T16:17:13.519Z,44.99
2023-02-14T16:19:42.948Z,45.27
2023-02-14T16:22:11.847Z,46.33
2023-02-14T16:24:40.279Z,47.29
2023-02-14T16:27:07.788Z,47.52
2023-02-14T16:29:36.653Z,48.37
2023-02-14T16:32:16.954Z,49.03
2023-02-14T16:34:46.983Z,49.52
2023-02-14T16:37:22.220Z,49.98
2023-02-14T16:39:50.767Z,50.49
2023-02-14T16:42:19.069Z,50.75
2023-02-14T16:44:47.371Z,50.95
2023-02-14T16:47:18.385Z,50.89
2023-02-14T16:49:46.922Z,52.03
2023-02-14T16:52:17.210Z,52.12
2023-02-14T16:54:44.908Z,52.24
2023-02-14T16:57:18.180Z,52.27
2023-02-14T16:59:45.659Z,52.68
2023-02-14T17:02:13.736Z,53.40
2023-02-14T17:04:42.568Z,53.91
2023-02-14T17:07:10.280Z,54.31
2023-02-14T17:09:41.465Z,55.19
2023-02-14T17:12:15.985Z,55.90
2023-02-14T17:14:46.568Z,56.54
2023-02-14T17:17:14.477Z,57.26
2023-02-14T17:19:43.880Z,56.73
2023-02-14T17:22:13.647Z,56.23
2023-02-14T17:24:41.431Z,56.12
2023-02-14T17:27:09.698Z,56.44
2023-02-14T17:29:37.145Z,57.50
2023-02-14T17:32:04.866Z,57.85
2023-02-14T17:34:32.553Z,59.27
2023-02-14T17:37:02.737Z,59.52
2023-02-14T17:39:30.165Z,59.70
2023-02-14T17:41:57.674Z,59.29
2023-02-14T17:44:25.108Z,59.31
2023-02-14T17:46:54.472Z,59.07
2023-02-14T17:49:21.897Z,59.31
2023-02-14T17:51:49.319Z,59.07
2023-02-14T17:54:18.566Z,59.65
2023-02-14T17:56:46.011Z,59.60
2023-02-14T17:59:13.413Z,59.40
2023-02-14T18:01:40.884Z,60.13
2023-02-14T18:04:08.392Z,60.77
2023-02-14T18:06:36.186Z,60.88
2023-02-14T18:09:06.023Z,61.51
2023-02-14T18:11:34.960Z,62.07
2023-02-14T18:14:04.364Z,62.99
2023-02-14T18:16:31.879Z,63.48
2023-02-14T18:19:02.823Z,64.62
2023-02-14T18:21:34.406Z,65.28
2023-02-14T18:24:01.961Z,66.55
2023-02-14T18:26:29.698Z,67.03
2023-02-14T18:28:58.496Z,67.86
2023-02-14T18:31:26.181Z,68.12
2023-02-14T18:33:54.829Z,68.40
2023-02-14T18:36:24.045Z,68.93
2023-02-14T18:38:51.853Z,68.56
2023-02-14T18:41:20.671Z,69.28
2023-02-14T18:43:51.144Z,69.66
2023-02-14T18:46:26.289Z,69.80
2023-02-14T18:48:59.944Z,70.73
2023-02-14T18:51:29.818Z,71.30
2023-02-14T18:53:59.435Z,72.14
2023-02-14T18:56:28.981Z,72.18
2023-02-14T18:59:02.423Z,72.89
2023-02-14T19:01:36.691Z,74.02
2023-02-14T19:04:08.010Z,74.33
2023-02-14T19:06:38.618Z,74.45
2023-02-14T19:09:10.000Z,74.47
2023-02-14T19:11:39.793Z,74.26
2023-02-14T19:14:10.069Z,73.79
2023-02-14T19:16:43.770Z,74.01
2023-02-14T19:19:12.255Z,74.72
2023-02-14T19:21:39.899Z,74.58
2023-02-14T19:24:09.460Z,74.59
2023-02-14T19:26:40.484Z,73.80
2023-02-14T19:29:10.525Z,74.09
2023-02-14T19:31:42.061Z,74.01
2023-02-14T19:34:16.786Z,74.09
2023-02-14T19:36:44.663Z,74.12
2023-02-14T19:39:13.538Z,74.63
2023-02-14T19:41:41.705Z,75.24
2023-02-14T19:44:10.377Z,75.65
2023-02-14T19:46:39.572Z,75.94
2023-02-14T19:49:07.568Z,76.18
2023-02-14T19:51:36.963Z,76.30
2023-02-14T19:54:07.202Z,76.52
2023-02-14T19:56:37.512Z,77.26
2023-02-14T19:59:08.906Z,77.13
2023-02-14T20:01:41.320Z,78.13
2023-02-14T20:04:13.692Z,78.82
2023-02-14T20:06:42.016Z,78.87
2023-02-14T20:09:10.195Z,79.50
2023-02-14T20:11:41.439Z,80.13
2023-02-14T20:14:09.942Z,80.81
2023-02-14T20:16:41.838Z,80.91
2023-02-14T20:19:12.830Z,81.55
2023-02-14T20:21:42.216Z,81.22
2023-02-14T20:24:10.854Z,81.46
2023-02-14T20:26:41.527Z,81.83
2023-02-14T20:29:11.152Z,82.10
2023-02-14T20:31:43.221Z,82.53
2023-02-14T20:34:11.608Z,82.81
2023-02-14T20:36:39.854Z,83.09
2023-02-14T20:39:10.540Z,83.50
2023-02-14T20:41:38.181Z,82.98
2023-02-14T20:44:08.204Z,82.10
2023-02-14T20:46:38.288Z,81.90
2023-02-14T20:49:12.264Z,81.52
2023-02-14T20:51:40.614Z,81.49
2023-02-14T20:54:08.293Z,81.92
2023-02-14T20:56:35.984Z,82.60
2023-02-14T20:59:03.682Z,82.96
2023-02-14T21:01:31.493Z,82.12
2023-02-14T21:03:59.116Z,82.42
2023-02-14T21:06:33.726Z,83.03
2023-02-14T21:09:02.315Z,83.39
2023-02-14T21:11:30.295Z,83.98
2023-02-14T21:13:59.945Z,84.25
2023-02-14T21:16:29.606Z,84.05
2023-02-14T21:18:59.856Z,83.96
2023-02-14T21:21:35.265Z,84.80
2023-02-14T21:24:04.598Z,85.40
2023-02-14T21:26:32.441Z,85.70
2023-02-14T21:29:00.235Z,85.49
2023-02-14T21:31:28.148Z,85.30
2023-02-14T21:33:57.845Z,85.57
2023-02-14T21:36:26.621Z,86.36
2023-02-14T21:38:58.371Z,87.06
2023-02-14T21:41:27.815Z,87.69
2023-02-14T21:43:56.315Z,88.69
2023-02-14T21:46:27.452Z,88.62
2023-02-14T21:49:13.198Z,88.83
2023-02-14T21:51:43.056Z,88.95
2023-02-14T21:54:12.716Z,88.90
2023-02-14T21:56:43.870Z,89.45
2023-02-14T21:59:12.084Z,90.46
2023-02-14T22:01:42.151Z,90.99
2023-02-14T22:04:12.484Z,91.02
2023-02-14T22:06:41.931Z,91.87
2023-02-14T22:09:11.040Z,92.22
2023-02-14T22:11:42.536Z,92.53
2023-02-14T22:14:10.230Z,92.08
2023-02-14T22:16:40.713Z,91.79
2023-02-14T22:19:09.988Z,91.94
2023-02-14T22:21:37.829Z,91.76
2023-02-14T22:24:06.044Z,92.04
2023-02-14T22:26:35.471Z,90.70
2023-02-14T22:29:04.551Z,90.46
2023-02-14T22:31:36.814Z,91.04
2023-02-14T22:34:04.570Z,90.84
2023-02-14T22:36:32.130Z,91.45
2023-02-14T22:38:59.706Z,92.17
2023-02-14T22:41:27.533Z,92.43
2023-02-14T22:43:55.829Z,92.40
2023-02-14T22:46:27.115Z,92.47
2023-02-14T22:48:55.608Z,93.17
2023-02-14T22:51:25.497Z,93.92
2023-02-14T22:53:55.494Z,93.53
2023-02-14T22:56:24.834Z,93.16
2023-02-14T22:58:55.048Z,93.20
2023-02-14T23:01:24.640Z,93.71
2023-02-14T23:03:54.803Z,93.94
2023-02-14T23:06:22.981Z,93.86
2023-02-14T23:08:50.983Z,93.80
2023-02-14T23:11:20.173Z,94.43
2023-02-14T23:14:04.977Z,94.71
2023-02-14T23:16:51.525Z,94.33
2023-02-14T23:19:38.614Z,94.03
2023-02-14T23:22:08.112Z,94.08
2023-02-14T23:24:35.868Z,93.65
2023-02-14T23:27:03.880Z,93.87
2023-02-14T23:29:31.660Z,93.85
2023-02-14T23:32:00.612Z,94.10
2023-02-14T23:34:28.590Z,94.50
2023-02-14T23:36:56.027Z,94.75
2023-02-14T23:39:24.118Z,94.40
2023-02-14T23:41:51.682Z,93.88
2023-02-14T23:44:20.962Z,93.76
2023-02-14T23:46:49.530Z,93.35
2023-02-14T23:49:19.084Z,93.17
2023-02-14T23:51:48.497Z,93.07
2023-02-14T23:54:16.048Z,93.35
2023-02-14T23:56:45.164Z,93.30
2023-02-14T23:59:14.827Z,93.70
